Time;durP1;ratioP1;P1;durP2;ratioP2;P2;SDS_P1;SDS_P2;PMS_P1;PMS_P2;Temp;Humidity;BMP_temperature;BMP_pressure;BME280_temperature;BME280_humidity;BME280_pressure;Samples;Min_cycle;Max_cycle;Signal;HPM_P1;HPM_P2
2021/11/13 00:02:25;;;;;;;54.20;8.93;;;1.70;99.90;;;;;;4957806;28;20051;-87
2021/11/13 00:04:59;;;;;;;46.27;8.73;;;1.70;99.90;;;;;;4957731;28;20023;-89
2021/11/13 00:07:36;;;;;;;61.93;9.97;;;1.80;99.90;;;;;;4953328;28;20460;-87
2021/11/13 00:10:13;;;;;;;87.80;10.57;;;1.70;99.90;;;;;;4954766;28;20063;-88
2021/11/13 00:13:10;;;;;;;93.10;10.10;;;1.70;99.90;;;;;;4953536;28;20551;-88
2021/11/13 00:15:49;;;;;;;100.53;10.33;;;1.70;99.90;;;;;;4951455;28;20035;-87
2021/11/13 00:18:18;;;;;;;71.67;9.50;;;1.60;99.90;;;;;;4952697;28;20036;-87
2021/11/13 00:20:55;;;;;;;;;;;;;;;;;;;;;
2021/11/13 00:23:25;;;;;;;109.63;11.33;;;1.60;99.90;;;;;;4955876;28;20123;-89
2021/11/13 00:25:51;;;;;;;118.60;11.57;;;1.60;99.90;;;;;;4950456;28;20027;-89
2021/11/13 00:28:17;;;;;;;54.23;9.63;;;1.60;99.90;;;;;;4953401;28;20023;-88
2021/11/13 00:30:46;;;;;;;80.53;9.87;;;1.60;99.90;;;;;;4955799;28;20045;-88
2021/11/13 00:33:20;;;;;;;58.23;9.17;;;1.60;99.90;;;;;;4955744;28;20024;-88
2021/11/13 00:35:48;;;;;;;92.10;11.43;;;1.70;99.90;;;;;;4954504;28;20106;-89
2021/11/13 00:38:14;;;;;;;68.97;11.40;;;1.80;99.90;;;;;;4954615;28;20044;-87
2021/11/13 00:40:57;;;;;;;95.40;10.33;;;1.70;99.90;;;;;;4952232;28;20027;-89
2021/11/13 00:43:27;;;;;;;;;;;1.70;99.90;;;;;;4957794;28;20086;-88
2021/11/13 00:46:01;;;;;;;45.30;9.27;;;1.70;99.90;;;;;;4951116;28;19910;-89
2021/11/13 00:48:27;;;;;;;40.07;9.37;;;1.80;99.90;;;;;;4956513;28;20021;-89
2021/11/13 00:50:53;;;;;;;24.30;8.37;;;1.80;99.90;;;;;;4959211;28;20094;-87
2021/11/13 00:53:24;;;;;;;21.27;8.80;;;1.80;99.90;;;;;;4958459;28;20035;-90
2021/11/13 00:58:23;;;;;;;20.80;8.47;;;1.80;99.90;;;;;;4965366;28;20086;-90
2021/11/13 01:00:51;;;;;;;26.73;8.40;;;1.90;99.90;;;;;;4955502;28;20042;-90
2021/11/13 01:03:23;;;;;;;14.33;8.67;;;1.90;99.90;;;;;;4956987;28;20553;-90
2021/11/13 01:05:52;;;;;;;17.77;8.70;;;1.90;99.90;;;;;;4957802;28;20046;-90
2021/11/13 01:08:18;;;;;;;25.83;8.63;;;1.90;99.90;;;;;;4956539;28;20031;-90
2021/11/13 01:10:45;;;;;;;17.33;9.10;;;1.90;99.90;;;;;;4956587;28;20494;-89
2021/11/13 01:13:10;;;;;;;26.13;9.17;;;1.90;99.90;;;;;;4956608;28;20030;-90
2021/11/13 01:15:37;;;;;;;22.87;8.80;;;1.80;99.90;;;;;;4971603;28;20030;-90
2021/11/13 01:18:03;;;;;;;19.80;7.97;;;1.90;99.90;;;;;;4974034;28;20029;-89
2021/11/13 01:20:31;;;;;;;30.97;8.50;;;1.80;99.90;;;;;;4956253;28;20494;-90
2021/11/13 01:22:59;;;;;;;20.40;7.80;;;1.80;99.90;;;;;;4974183;28;20053;-90
2021/11/13 01:25:28;;;;;;;20.60;8.13;;;1.70;99.90;;;;;;4956946;28;20128;-89
2021/11/13 01:27:54;;;;;;;22.67;8.03;;;1.70;99.90;;;;;;4957380;28;20026;-89
2021/11/13 01:30:23;;;;;;;42.23;7.90;;;1.70;99.90;;;;;;4957122;28;20026;-90
2021/11/13 01:32:49;;;;;;;84.77;9.70;;;1.60;99.90;;;;;;4960815;28;20027;-90
2021/11/13 01:35:16;;;;;;;21.10;7.53;;;1.60;99.90;;;;;;4958434;28;20114;-90
2021/11/13 01:37:42;;;;;;;24.93;7.57;;;1.60;99.90;;;;;;4955131;28;20025;-89
2021/11/13 01:40:16;;;;;;;22.37;7.47;;;1.60;99.90;;;;;;4955473;28;20027;-89
2021/11/13 01:42:48;;;;;;;15.53;7.63;;;1.60;99.90;;;;;;4955793;28;20023;-90
2021/11/13 01:45:15;;;;;;;14.30;7.65;;;1.50;99.90;;;;;;4954016;28;20023;-89
2021/11/13 01:47:45;;;;;;;16.73;7.77;;;1.50;99.90;;;;;;4956400;28;20023;-89
2021/11/13 01:50:31;;;;;;;17.70;7.70;;;1.50;99.90;;;;;;4971141;28;20027;-89
2021/11/13 01:52:57;;;;;;;51.03;8.37;;;1.60;99.90;;;;;;4967322;28;20034;-90
2021/11/13 01:55:22;;;;;;;38.53;7.57;;;1.60;99.90;;;;;;4955860;28;20035;-88
2021/11/13 01:57:52;;;;;;;21.03;7.57;;;1.70;99.90;;;;;;4955288;28;20442;-89
2021/11/13 02:00:24;;;;;;;49.30;9.23;;;1.60;99.90;;;;;;4937938;28;20043;-89
2021/11/13 02:02:50;;;;;;;24.42;7.78;;;1.70;99.90;;;;;;4973216;28;20109;-89
2021/11/13 02:05:19;;;;;;;154.90;12.10;;;1.70;99.90;;;;;;4955807;28;20105;-90
2021/11/13 02:07:45;;;;;;;125.47;11.50;;;1.80;99.90;;;;;;4973313;28;20046;-89
2021/11/13 02:10:12;;;;;;;26.50;8.70;;;1.70;99.90;;;;;;4953581;28;20049;-90
2021/11/13 02:12:37;;;;;;;78.43;9.27;;;1.70;99.90;;;;;;4956209;28;20175;-89
2021/11/13 02:15:04;;;;;;;45.40;9.20;;;1.70;99.90;;;;;;4955644;28;20509;-90
2021/11/13 02:17:30;;;;;;;124.03;10.20;;;1.80;99.90;;;;;;4954746;28;20146;-89
2021/11/13 02:19:56;;;;;;;83.80;9.50;;;1.80;99.90;;;;;;4955404;28;20450;-90
2021/11/13 02:22:24;;;;;;;53.47;9.40;;;1.70;99.90;;;;;;4956128;28;20041;-90
2021/11/13 02:24:50;;;;;;;116.50;10.63;;;1.70;99.90;;;;;;4955843;28;20478;-89
2021/11/13 02:27:16;;;;;;;151.77;11.30;;;1.80;99.90;;;;;;4954908;28;20102;-89
2021/11/13 02:29:41;;;;;;;132.70;10.87;;;1.70;99.90;;;;;;4956845;28;20086;-89
2021/11/13 02:32:07;;;;;;;74.83;9.17;;;1.70;99.90;;;;;;4979956;28;20054;-89
2021/11/13 02:34:33;;;;;;;78.00;8.80;;;1.70;99.90;;;;;;4985408;28;20118;-89
2021/11/13 02:36:58;;;;;;;99.63;8.93;;;1.70;99.90;;;;;;4959665;28;20479;-90
2021/11/13 02:39:25;;;;;;;75.53;8.87;;;1.60;99.90;;;;;;4973016;28;20027;-90
2021/11/13 02:41:50;;;;;;;90.63;9.63;;;1.70;99.90;;;;;;4955123;28;20483;-90
2021/11/13 02:44:17;;;;;;;57.60;9.13;;;1.60;99.90;;;;;;4972649;28;20058;-90
2021/11/13 02:46:43;;;;;;;88.47;9.00;;;1.70;99.90;;;;;;4951830;28;20030;-90
2021/11/13 02:49:10;;;;;;;44.93;8.03;;;1.70;99.90;;;;;;4955560;28;20031;-90
2021/11/13 02:51:36;;;;;;;38.90;7.87;;;1.70;99.90;;;;;;4972593;28;20123;-90
2021/11/13 02:54:02;;;;;;;43.03;7.60;;;1.80;99.90;;;;;;4970752;28;20034;-90
2021/11/13 02:56:28;;;;;;;49.63;8.67;;;1.70;99.90;;;;;;4951891;28;20030;-90
2021/11/13 02:58:53;;;;;;;33.97;7.83;;;1.80;99.90;;;;;;4972369;28;20035;-91
2021/11/13 03:01:23;;;;;;;37.30;8.77;;;1.70;99.90;;;;;;4954769;28;20033;-89
2021/11/13 03:03:50;;;;;;;28.83;7.20;;;1.80;99.90;;;;;;4954838;28;20057;-90
2021/11/13 03:06:17;;;;;;;19.43;8.27;;;1.80;99.90;;;;;;4972249;28;20025;-90
2021/11/13 03:08:44;;;;;;;47.47;8.43;;;1.80;99.90;;;;;;4972384;28;20027;-90
2021/11/13 03:11:14;;;;;;;61.93;8.77;;;1.80;99.90;;;;;;4958125;28;20027;-91
2021/11/13 03:13:45;;;;;;;60.93;8.23;;;1.80;99.90;;;;;;4974202;28;20176;-90
2021/11/13 03:16:13;;;;;;;42.03;7.17;;;1.80;99.90;;;;;;4958876;28;20026;-90
2021/11/13 03:18:39;;;;;;;41.50;7.77;;;1.80;99.90;;;;;;4976335;28;20035;-90
2021/11/13 03:21:06;;;;;;;55.80;7.57;;;1.80;99.90;;;;;;4957999;28;20399;-89
2021/11/13 03:23:38;;;;;;;44.27;7.57;;;1.70;99.90;;;;;;4956363;28;20022;-90
2021/11/13 03:26:09;;;;;;;24.67;7.10;;;1.70;99.90;;;;;;4976113;28;20065;-90
2021/11/13 03:28:39;;;;;;;22.17;7.10;;;1.70;99.90;;;;;;4973065;28;20062;-89
2021/11/13 03:31:07;;;;;;;39.83;7.43;;;1.70;99.90;;;;;;4958133;28;20030;-90
2021/11/13 03:33:38;;;;;;;22.10;6.40;;;1.70;99.90;;;;;;4976280;28;20031;-89
2021/11/13 03:36:06;;;;;;;28.33;7.50;;;1.70;99.90;;;;;;4976441;28;20019;-91
2021/11/13 03:38:36;;;;;;;33.00;7.47;;;1.70;99.90;;;;;;4959183;28;20081;-90
2021/11/13 03:41:02;;;;;;;23.87;6.60;;;1.50;99.90;;;;;;4959968;28;20019;-89
2021/11/13 03:43:28;;;;;;;28.00;7.20;;;1.60;99.90;;;;;;4959657;28;20091;-90
2021/11/13 03:45:54;;;;;;;20.43;7.10;;;1.50;99.90;;;;;;4958819;28;20039;-88
2021/11/13 03:48:20;;;;;;;61.00;8.47;;;1.50;99.90;;;;;;4958214;28;20493;-89
2021/11/13 03:50:46;;;;;;;60.73;8.30;;;1.50;99.90;;;;;;4974977;28;20110;-89
2021/11/13 03:53:12;;;;;;;64.03;8.33;;;1.50;99.90;;;;;;4975302;28;20443;-91
2021/11/13 03:55:38;;;;;;;44.30;7.77;;;1.40;99.90;;;;;;4974585;28;20022;-90
2021/11/13 03:58:08;;;;;;;22.90;7.53;;;1.40;99.90;;;;;;4956616;28;20046;-90
2021/11/13 04:00:34;;;;;;;45.20;8.10;;;1.30;99.90;;;;;;4973098;28;20130;-90
2021/11/13 04:03:00;;;;;;;50.73;8.07;;;1.30;99.90;;;;;;4975405;28;20102;-90
2021/11/13 04:05:26;;;;;;;16.67;7.13;;;1.40;99.90;;;;;;4957584;28;20029;-90
2021/11/13 04:07:52;;;;;;;36.10;8.70;;;1.40;99.90;;;;;;4957937;28;20035;-90
2021/11/13 04:10:19;;;;;;;32.00;8.00;;;1.40;99.90;;;;;;4975205;28;20407;-89
2021/11/13 04:12:50;;;;;;;22.03;8.43;;;1.40;99.90;;;;;;4959132;28;20411;-91
2021/11/13 04:15:19;;;;;;;38.20;8.53;;;1.40;99.90;;;;;;4977558;28;20573;-90
2021/11/13 04:17:46;;;;;;;20.73;7.83;;;1.40;99.90;;;;;;4957597;28;20050;-90
2021/11/13 04:20:12;;;;;;;47.50;8.90;;;1.60;99.90;;;;;;4956330;28;20022;-90
2021/11/13 04:22:41;;;;;;;41.13;8.07;;;1.50;99.90;;;;;;4956973;28;20077;-91
2021/11/13 04:25:08;;;;;;;28.33;8.47;;;1.50;99.90;;;;;;4974397;28;20087;-90
2021/11/13 04:27:33;;;;;;;39.97;8.70;;;1.40;99.90;;;;;;4974466;28;20031;-90
2021/11/13 04:29:59;;;;;;;20.60;7.83;;;1.40;99.90;;;;;;4974512;28;20058;-89
2021/11/13 04:32:29;;;;;;;30.60;8.47;;;1.40;99.90;;;;;;4968457;28;20054;-90
2021/11/13 04:37:26;;;;;;;30.30;7.57;;;1.60;99.90;;;;;;4974195;28;20039;-90
2021/11/13 04:39:52;;;;;;;34.67;8.60;;;1.60;99.90;;;;;;4973504;28;20093;-91
2021/11/13 04:42:18;;;;;;;18.50;9.07;;;1.60;99.90;;;;;;4956853;28;20483;-90
2021/11/13 04:44:51;;;;;;;29.57;8.47;;;1.60;99.90;;;;;;4956781;28;20026;-91
2021/11/13 04:47:17;;;;;;;40.83;7.63;;;1.60;99.90;;;;;;4957195;28;20039;-89
2021/11/13 04:49:51;;;;;;;19.77;7.63;;;1.70;99.90;;;;;;4973683;28;20038;-90
2021/11/13 04:52:20;;;;;;;27.40;9.10;;;1.70;99.90;;;;;;4971024;28;20061;-89
2021/11/13 04:54:45;;;;;;;39.67;8.60;;;1.60;99.90;;;;;;4973849;28;20030;-91
2021/11/13 04:57:14;;;;;;;36.87;8.20;;;1.70;99.90;;;;;;4955674;28;20038;-89
2021/11/13 04:59:42;;;;;;;40.43;9.80;;;1.70;99.90;;;;;;4973336;28;20037;-91
2021/11/13 05:02:08;;;;;;;17.47;7.77;;;1.60;99.90;;;;;;4956401;28;20031;-90
2021/11/13 05:04:33;;;;;;;16.97;8.07;;;1.60;99.90;;;;;;4973010;28;20058;-90
2021/11/13 05:06:59;;;;;;;22.87;9.10;;;1.60;99.90;;;;;;4952687;28;20019;-90
2021/11/13 05:09:25;;;;;;;18.10;7.93;;;1.60;99.90;;;;;;4972251;28;20105;-90
2021/11/13 05:11:51;;;;;;;25.73;9.03;;;1.60;99.90;;;;;;4954670;28;20181;-90
2021/11/13 05:14:19;;;;;;;19.13;8.00;;;1.70;99.90;;;;;;4955361;28;20034;-89
2021/11/13 05:16:45;;;;;;;16.67;7.47;;;1.70;99.90;;;;;;4972210;28;20018;-91
2021/11/13 05:19:11;;;;;;;16.40;7.87;;;1.70;99.90;;;;;;4972717;28;20030;-90
2021/11/13 05:21:37;;;;;;;16.57;8.23;;;1.70;99.90;;;;;;4972341;28;20031;-91
2021/11/13 05:24:05;;;;;;;16.00;7.77;;;1.70;99.90;;;;;;4955278;28;20030;-91
2021/11/13 05:26:31;;;;;;;17.90;7.80;;;1.80;99.90;;;;;;4952656;28;20057;-91
2021/11/13 05:28:57;;;;;;;14.43;7.70;;;1.70;99.90;;;;;;4972640;28;20042;-91
2021/11/13 05:31:23;;;;;;;20.30;7.87;;;1.60;99.90;;;;;;4972660;28;20027;-90
2021/11/13 05:33:48;;;;;;;15.17;7.03;;;1.60;99.90;;;;;;4971874;28;20030;-91
2021/11/13 05:36:14;;;;;;;17.43;8.20;;;1.50;99.90;;;;;;4955249;28;20023;-89
2021/11/13 05:38:40;;;;;;;17.77;7.57;;;1.50;99.90;;;;;;4955294;28;20439;-91
2021/11/13 05:41:05;;;;;;;17.47;7.90;;;1.60;99.90;;;;;;4970110;28;20447;-90
2021/11/13 05:43:31;;;;;;;14.07;8.37;;;1.60;99.90;;;;;;4972257;28;20054;-90
2021/11/13 05:45:57;;;;;;;15.93;7.33;;;1.50;99.90;;;;;;4954455;28;20019;-90
2021/11/13 05:48:23;;;;;;;19.27;8.37;;;1.50;99.90;;;;;;4971927;28;20498;-89
2021/11/13 05:50:51;;;;;;;16.00;7.93;;;1.60;99.90;;;;;;4953592;28;20593;-88
2021/11/13 05:53:20;;;;;;;15.87;7.70;;;1.60;99.90;;;;;;4972028;28;20035;-90
2021/11/13 05:55:45;;;;;;;19.63;8.17;;;1.60;99.90;;;;;;4953900;28;20031;-91
2021/11/13 05:58:15;;;;;;;17.40;7.87;;;1.60;99.90;;;;;;4953612;28;20108;-90
2021/11/13 06:00:41;;;;;;;14.67;7.63;;;1.60;99.90;;;;;;4954060;28;20041;-90
2021/11/13 06:03:09;;;;;;;17.90;7.70;;;1.50;99.90;;;;;;4954651;28;20058;-90
2021/11/13 06:05:34;;;;;;;19.17;8.97;;;1.60;99.90;;;;;;4972045;28;20030;-90
2021/11/13 06:08:03;;;;;;;16.37;7.47;;;1.60;99.90;;;;;;4971224;28;20031;-91
2021/11/13 06:10:28;;;;;;;15.33;7.80;;;1.70;99.90;;;;;;4953298;28;20187;-90
2021/11/13 06:12:54;;;;;;;17.53;7.90;;;1.70;99.90;;;;;;4971895;28;20104;-91
2021/11/13 06:15:20;;;;;;;15.43;8.03;;;1.70;99.90;;;;;;4953915;28;20479;-90
2021/11/13 06:17:46;;;;;;;15.20;8.10;;;1.70;99.90;;;;;;4969628;28;20027;-90
2021/11/13 06:20:14;;;;;;;19.70;8.77;;;1.80;99.90;;;;;;4971173;28;20049;-90
2021/11/13 06:22:40;;;;;;;18.70;8.13;;;1.80;99.90;;;;;;4953845;28;20124;-89
2021/11/13 06:25:10;;;;;;;26.97;8.93;;;1.80;99.90;;;;;;4970910;28;20026;-90
2021/11/13 06:27:37;;;;;;;15.60;8.37;;;1.90;99.90;;;;;;4954070;28;20077;-90
2021/11/13 06:30:12;;;;;;;13.67;7.40;;;1.90;99.90;;;;;;4953809;28;20058;-89
2021/11/13 06:32:42;;;;;;;15.07;7.07;;;1.90;99.90;;;;;;4970373;28;20038;-90
2021/11/13 06:35:12;;;;;;;13.53;7.13;;;1.90;99.90;;;;;;4971655;28;20027;-90
2021/11/13 06:37:39;;;;;;;15.13;7.70;;;1.90;99.90;;;;;;4971023;28;20027;-88
2021/11/13 06:40:18;;;;;;;16.50;8.23;;;2.00;99.90;;;;;;4953683;28;20173;-89
2021/11/13 06:42:44;;;;;;;15.93;8.30;;;1.90;99.90;;;;;;4950955;28;20891;-89
2021/11/13 06:45:13;;;;;;;17.10;8.43;;;1.80;99.90;;;;;;4974776;28;20021;-90
2021/11/13 06:47:42;;;;;;;16.33;8.10;;;1.80;99.90;;;;;;4957896;28;20023;-90
2021/11/13 06:50:10;;;;;;;13.80;7.43;;;1.80;99.90;;;;;;4974445;28;20038;-90
2021/11/13 06:52:36;;;;;;;15.10;7.83;;;1.80;99.90;;;;;;4974831;28;20030;-91
2021/11/13 06:55:03;;;;;;;16.23;7.50;;;1.80;99.90;;;;;;4957558;28;20027;-90
2021/11/13 06:57:29;;;;;;;17.93;8.67;;;1.80;99.90;;;;;;4976355;28;20030;-91
2021/11/13 06:59:54;;;;;;;12.20;6.87;;;1.90;99.90;;;;;;4960800;28;20030;-90
2021/11/13 07:02:23;;;;;;;16.27;6.97;;;1.90;99.90;;;;;;4976245;28;20683;-91
2021/11/13 07:04:49;;;;;;;15.50;7.60;;;1.90;99.90;;;;;;4974891;28;20050;-89
2021/11/13 07:07:14;;;;;;;13.13;7.07;;;1.90;99.90;;;;;;4956533;28;20494;-90
2021/11/13 07:09:40;;;;;;;15.83;7.33;;;1.90;99.90;;;;;;4974105;28;20085;-90
2021/11/13 07:12:07;;;;;;;14.83;7.07;;;2.00;99.90;;;;;;4957491;28;20034;-89
2021/11/13 07:14:33;;;;;;;15.27;7.47;;;2.00;99.90;;;;;;4956228;28;20035;-90
2021/11/13 07:17:00;;;;;;;13.50;6.67;;;2.00;99.90;;;;;;4974635;28;20023;-90
2021/11/13 07:19:29;;;;;;;14.43;7.87;;;2.10;99.90;;;;;;4957016;28;20037;-90
2021/11/13 07:21:54;;;;;;;15.47;7.50;;;2.10;99.90;;;;;;4956325;28;20023;-89
2021/11/13 07:24:23;;;;;;;11.87;6.40;;;2.10;99.90;;;;;;4968266;28;20450;-90
2021/11/13 07:26:52;;;;;;;15.93;7.40;;;2.20;99.90;;;;;;4956898;28;20023;-91
2021/11/13 07:32:03;;;;;;;15.77;7.00;;;2.30;99.90;;;;;;4994648;23;20511;-91
2021/11/13 07:34:45;;;;;;;16.03;7.80;;;2.30;99.90;;;;;;4958728;28;20035;-90
2021/11/13 07:37:24;;;;;;;;;;;2.30;99.90;;;;;;4958321;28;20063;-90
2021/11/13 07:40:00;;;;;;;14.63;7.23;;;2.30;99.90;;;;;;4957786;28;20013;-90
2021/11/13 07:42:49;;;;;;;15.13;7.37;;;2.20;99.90;;;;;;4956453;28;20031;-90
2021/11/13 07:45:29;;;;;;;10.97;6.80;;;2.20;99.90;;;;;;4972440;28;20057;-91
2021/11/13 07:50:47;;;;;;;12.50;6.47;;;2.30;99.90;;;;;;4945941;28;19929;-90
2021/11/13 07:53:21;;;;;;;14.77;7.33;;;2.20;99.90;;;;;;4955760;28;20102;-90
2021/11/13 07:55:48;;;;;;;15.97;7.27;;;2.30;99.90;;;;;;4953121;28;20038;-89
2021/11/13 07:58:18;;;;;;;14.17;7.13;;;2.30;99.90;;;;;;4957981;28;20019;-88
2021/11/13 08:00:50;;;;;;;13.67;7.17;;;2.40;99.90;;;;;;4956263;28;20023;-89
2021/11/13 08:03:17;;;;;;;15.18;6.05;;;2.40;99.90;;;;;;4956798;28;20015;-89
2021/11/13 08:05:49;;;;;;;12.37;7.00;;;2.50;99.90;;;;;;4956304;28;20030;-89
2021/11/13 08:08:33;;;;;;;12.52;6.65;;;2.50;99.90;;;;;;4974791;28;20039;-89
2021/11/13 08:11:27;;;;;;;13.27;7.07;;;2.60;99.90;;;;;;4972932;28;20089;-89
2021/11/13 08:14:53;;;;;;;;;;;;;;;;;;;;;
2021/11/13 08:17:41;;;;;;;15.50;7.50;;;2.70;99.90;;;;;;4917319;29;20082;-90
2021/11/13 08:20:10;;;;;;;17.50;8.57;;;2.90;99.90;;;;;;4970675;28;20026;-89
2021/11/13 08:22:36;;;;;;;15.23;7.30;;;3.00;99.90;;;;;;4974929;28;20094;-89
2021/11/13 08:25:10;;;;;;;15.23;7.50;;;3.10;99.90;;;;;;4954140;28;20031;-89
2021/11/13 08:27:44;;;;;;;13.90;7.53;;;3.00;99.90;;;;;;4954114;28;20121;-89
2021/11/13 08:30:29;;;;;;;13.43;7.40;;;3.20;99.90;;;;;;4957336;28;20023;-89
2021/11/13 08:33:24;;;;;;;14.40;6.77;;;3.20;99.90;;;;;;4955558;28;20427;-89
2021/11/13 08:36:34;;;;;;;13.03;7.30;;;3.30;99.90;;;;;;4949325;28;20050;-90
2021/11/13 08:39:27;;;;;;;14.53;7.23;;;3.30;99.90;;;;;;4956803;28;20398;-90
2021/11/13 08:54:37;;;;;;;21.53;11.90;;;3.60;99.90;;;;;;4969311;28;20507;-89
2021/11/13 08:57:28;;;;;;;15.30;9.10;;;3.80;99.90;;;;;;4967849;28;20099;-88
2021/11/13 09:00:02;;;;;;;19.60;10.33;;;3.90;99.90;;;;;;4948482;28;20023;-89
2021/11/13 09:02:49;;;;;;;16.57;7.53;;;4.00;99.90;;;;;;4954377;28;20023;-90
2021/11/13 09:06:14;;;;;;;;;;;;;;;;;;;;;
2021/11/13 09:09:03;;;;;;;;;;;;;;;;;;;;;
2021/11/13 09:11:47;;;;;;;11.50;6.40;;;4.20;99.90;;;;;;4979526;28;20098;-91
2021/11/13 09:14:24;;;;;;;10.30;5.57;;;4.30;99.90;;;;;;4966740;28;20035;-91
2021/11/13 09:17:11;;;;;;;12.83;7.00;;;4.40;99.90;;;;;;4987777;28;20026;-89
2021/11/13 09:20:07;;;;;;;12.83;6.73;;;4.40;99.90;;;;;;4973753;28;20043;-89
2021/11/13 09:22:38;;;;;;;14.77;7.17;;;4.50;99.90;;;;;;4971552;28;20114;-89
2021/11/13 09:25:20;;;;;;;15.00;7.37;;;4.60;99.90;;;;;;4968637;28;20049;-88
2021/11/13 09:28:26;;;;;;;11.13;5.30;;;4.60;99.90;;;;;;4970012;28;20383;-89
2021/11/13 09:36:26;;;;;;;12.23;6.33;;;4.90;99.90;;;;;;3240468;26;20052;-89
2021/11/13 09:39:01;;;;;;;11.73;6.73;;;5.00;99.90;;;;;;4914965;29;20062;-89
2021/11/13 09:42:06;;;;;;;13.40;7.57;;;5.10;99.90;;;;;;4913818;29;20488;-90
2021/11/13 09:44:52;;;;;;;11.47;6.53;;;5.20;99.90;;;;;;4922960;29;20583;-89
2021/11/13 09:47:34;;;;;;;;;;;;;;;;;;;;;
2021/11/13 09:50:33;;;;;;;12.73;7.63;;;5.40;99.90;;;;;;4927834;29;20507;-89
2021/11/13 10:03:22;;;;;;;12.33;6.43;;;6.00;99.90;;;;;;4932409;29;20034;-89
2021/11/13 10:05:56;;;;;;;12.47;6.10;;;6.30;99.90;;;;;;4932628;29;20039;-89
2021/11/13 10:15:44;;;;;;;10.07;5.37;;;6.60;99.90;;;;;;4916053;29;20111;-91
2021/11/13 10:19:28;;;;;;;;;;;;;;;;;;;;;
2021/11/13 10:22:15;;;;;;;11.17;5.83;;;6.50;99.90;;;;;;4869300;29;20033;-91
2021/11/13 10:25:22;;;;;;;9.33;5.70;;;6.60;99.90;;;;;;4928322;29;20032;-91
2021/11/13 10:31:50;;;;;;;11.13;6.47;;;6.70;99.90;;;;;;4906674;29;20067;-91
2021/11/13 10:38:23;;;;;;;11.87;7.17;;;6.60;99.90;;;;;;4881168;29;20065;-91
2021/11/13 10:45:01;;;;;;;11.50;6.40;;;6.50;99.90;;;;;;4879817;29;20105;-90
2021/11/13 10:47:32;;;;;;;9.77;5.90;;;6.50;99.90;;;;;;4871167;29;20125;-90
2021/11/13 10:50:18;;;;;;;11.03;6.50;;;6.60;99.90;;;;;;4890933;29;20128;-90
2021/11/13 10:53:08;;;;;;;14.07;6.90;;;6.60;99.90;;;;;;4895375;29;20425;-90
2021/11/13 10:55:46;;;;;;;13.40;7.00;;;6.60;99.90;;;;;;4907677;29;20028;-90
2021/11/13 10:58:33;;;;;;;12.03;6.93;;;6.60;99.90;;;;;;4966288;29;20051;-90
2021/11/13 11:01:28;;;;;;;13.63;7.60;;;6.70;99.90;;;;;;4918868;29;20028;-90
2021/11/13 11:04:09;;;;;;;14.73;7.37;;;6.70;99.90;;;;;;4950113;29;20028;-90
2021/11/13 11:07:05;;;;;;;14.13;7.63;;;6.80;99.90;;;;;;4950664;29;20023;-90
2021/11/13 11:09:56;;;;;;;12.50;7.20;;;6.80;99.90;;;;;;4930451;28;20023;-90
2021/11/13 11:15:39;;;;;;;12.87;7.43;;;6.90;99.90;;;;;;4937426;29;20032;-91
2021/11/13 11:18:51;;;;;;;;;;;;;;;;;;;;;
2021/11/13 11:32:11;;;;;;;13.27;8.07;;;7.30;99.90;;;;;;4786070;29;20075;-91
2021/11/13 11:38:06;;;;;;;15.47;8.17;;;7.20;99.90;;;;;;4849452;29;20053;-91
2021/11/13 11:40:35;;;;;;;13.07;7.67;;;7.40;99.90;;;;;;4859924;29;20062;-89
2021/11/13 11:43:04;;;;;;;13.77;7.80;;;7.40;99.90;;;;;;4907343;29;20043;-88
2021/11/13 11:45:37;;;;;;;11.57;7.07;;;7.40;99.90;;;;;;4921941;29;20130;-89
2021/11/13 11:48:07;;;;;;;12.17;7.37;;;7.50;99.90;;;;;;4925196;29;20491;-88
2021/11/13 11:50:36;;;;;;;11.77;7.00;;;7.50;99.90;;;;;;4920938;29;20027;-88
2021/11/13 11:53:14;;;;;;;12.73;6.73;;;7.60;99.90;;;;;;4932034;29;20103;-89
2021/11/13 11:55:46;;;;;;;11.30;6.40;;;7.60;99.90;;;;;;4920707;29;20051;-88
2021/11/13 11:58:18;;;;;;;10.10;6.22;;;7.60;99.90;;;;;;4921471;29;20126;-89
2021/11/13 12:00:45;;;;;;;10.17;6.53;;;7.70;99.90;;;;;;4934561;29;20042;-89
2021/11/13 12:03:26;;;;;;;12.77;6.80;;;7.60;99.90;;;;;;4930815;29;20031;-89
2021/11/13 12:05:54;;;;;;;11.73;6.53;;;7.60;99.90;;;;;;4919791;29;20036;-89
2021/11/13 12:08:23;;;;;;;12.10;6.53;;;7.60;99.90;;;;;;4921917;29;20063;-90
2021/11/13 12:10:50;;;;;;;9.63;6.50;;;7.70;99.90;;;;;;4936825;28;20027;-88
2021/11/13 12:13:24;;;;;;;9.37;6.13;;;7.70;99.90;;;;;;4922353;29;20122;-88
2021/11/13 12:15:53;;;;;;;13.70;6.87;;;7.70;99.90;;;;;;4914981;29;20047;-88
2021/11/13 12:18:40;;;;;;;11.57;6.87;;;7.80;99.90;;;;;;4917954;29;20453;-90
2021/11/13 12:21:14;;;;;;;11.10;6.33;;;7.80;99.90;;;;;;4917079;29;20122;-89
2021/11/13 12:23:48;;;;;;;11.97;6.87;;;7.80;99.90;;;;;;4910698;29;20066;-89
2021/11/13 12:26:22;;;;;;;10.90;6.60;;;7.80;99.90;;;;;;4919362;29;20118;-89
2021/11/13 12:28:48;;;;;;;10.57;6.93;;;7.80;99.90;;;;;;4919144;29;20031;-88
2021/11/13 12:31:19;;;;;;;13.90;6.73;;;7.90;99.90;;;;;;4919723;29;20487;-89
2021/11/13 12:34:00;;;;;;;9.45;5.97;;;7.90;99.90;;;;;;4913563;29;20449;-90
2021/11/13 12:36:54;;;;;;;10.43;5.63;;;7.90;99.90;;;;;;4920256;29;20621;-89
2021/11/13 12:39:48;;;;;;;10.63;5.90;;;7.90;99.90;;;;;;4934768;29;20098;-89
2021/11/13 12:42:25;;;;;;;10.60;5.70;;;7.90;99.90;;;;;;4925912;29;20649;-91
2021/11/13 12:45:57;;;;;;;;;;;;;;;;;;;;;
2021/11/13 12:52:30;;;;;;;9.57;6.10;;;7.80;99.90;;;;;;5018226;23;20069;-93
2021/11/13 12:58:51;;;;;;;;;;;;;;;;;;;;;
2021/11/13 13:01:35;;;;;;;7.93;4.60;;;8.00;99.90;;;;;;4992647;28;20030;-90
2021/11/13 13:04:01;;;;;;;7.43;4.53;;;8.10;99.90;;;;;;4975290;28;20085;-89
2021/11/13 13:06:26;;;;;;;10.00;4.17;;;8.10;99.90;;;;;;4975801;28;20030;-89
2021/11/13 13:09:03;;;;;;;7.70;4.77;;;8.10;99.90;;;;;;4997097;28;20098;-90
2021/11/13 13:11:29;;;;;;;9.97;5.50;;;8.20;99.90;;;;;;4989372;28;20034;-90
2021/11/13 13:14:18;;;;;;;12.23;5.30;;;8.20;99.90;;;;;;4978676;28;20026;-90
2021/11/13 13:16:45;;;;;;;8.53;4.90;;;8.20;99.90;;;;;;4975253;28;20382;-89
2021/11/13 13:19:11;;;;;;;8.60;5.15;;;8.20;99.90;;;;;;4994810;28;20423;-89
2021/11/13 13:21:38;;;;;;;8.23;4.97;;;8.20;99.90;;;;;;4976226;28;20113;-89
2021/11/13 13:24:16;;;;;;;9.27;5.50;;;8.20;99.90;;;;;;4976960;28;20022;-88
2021/11/13 13:26:44;;;;;;;13.43;6.20;;;8.20;99.90;;;;;;4974443;28;20037;-88
2021/11/13 13:29:20;;;;;;;11.03;5.77;;;8.10;99.90;;;;;;4975176;28;20458;-89
2021/11/13 13:32:02;;;;;;;8.67;5.20;;;8.00;99.90;;;;;;4957679;28;20026;-88
2021/11/13 13:34:29;;;;;;;9.75;5.55;;;8.00;99.90;;;;;;4962563;28;20562;-88
2021/11/13 13:37:16;;;;;;;9.67;6.03;;;8.00;99.90;;;;;;4957901;28;20077;-90
2021/11/13 13:39:45;;;;;;;12.27;5.17;;;7.90;99.90;;;;;;4990359;28;20037;-89
2021/11/13 13:42:11;;;;;;;9.50;5.23;;;7.90;99.90;;;;;;4976561;28;20030;-89
2021/11/13 13:44:38;;;;;;;9.37;5.57;;;7.80;99.90;;;;;;4976113;28;20114;-89
2021/11/13 13:47:06;;;;;;;12.20;5.87;;;7.80;99.90;;;;;;4984404;23;20043;-90
2021/11/13 13:49:32;;;;;;;9.57;6.27;;;7.80;99.90;;;;;;4951654;29;20094;-91
2021/11/13 13:51:59;;;;;;;10.37;5.80;;;7.80;99.90;;;;;;4953232;28;20134;-89
2021/11/13 13:55:01;;;;;;;8.23;5.03;;;7.70;99.90;;;;;;4950687;28;20051;-90
2021/11/13 13:57:31;;;;;;;12.40;5.72;;;7.70;99.90;;;;;;4944547;28;20108;-91
2021/11/13 14:00:06;;;;;;;8.80;5.37;;;7.70;99.90;;;;;;4934106;29;20044;-90
2021/11/13 14:02:56;;;;;;;9.97;5.90;;;7.60;99.90;;;;;;4934846;29;20035;-90
2021/11/13 14:05:30;;;;;;;9.73;5.50;;;7.60;99.90;;;;;;4916566;29;20061;-90
2021/11/13 14:08:30;;;;;;;9.30;5.40;;;7.60;99.90;;;;;;4920536;29;20452;-90
2021/11/13 14:11:23;;;;;;;11.17;5.00;;;7.60;99.90;;;;;;4924593;29;20043;-90
2021/11/13 14:13:53;;;;;;;8.57;5.00;;;7.60;99.90;;;;;;4961588;28;20020;-91
2021/11/13 14:16:41;;;;;;;8.70;4.87;;;7.60;99.90;;;;;;4929101;29;20043;-90
2021/11/13 14:19:21;;;;;;;10.40;6.20;;;7.60;99.90;;;;;;4936977;29;20038;-89
2021/11/13 14:21:50;;;;;;;8.83;5.23;;;7.60;99.90;;;;;;4935677;29;20036;-91
2021/11/13 14:24:16;;;;;;;9.23;5.53;;;7.60;99.90;;;;;;4935910;29;20032;-90
2021/11/13 14:27:14;;;;;;;10.67;5.53;;;7.50;99.90;;;;;;4937765;29;20036;-89
2021/11/13 14:30:03;;;;;;;8.67;4.60;;;7.50;99.90;;;;;;4930903;29;20020;-90
2021/11/13 14:33:06;;;;;;;9.77;5.63;;;7.60;99.90;;;;;;4938411;29;20023;-90
2021/11/13 14:35:58;;;;;;;;;;;;;;;;;;;;;
2021/11/13 14:42:24;;;;;;;8.97;4.90;;;7.60;99.90;;;;;;4918544;29;20047;-90
2021/11/13 14:44:55;;;;;;;8.07;5.20;;;7.60;99.90;;;;;;4938254;29;20135;-90
2021/11/13 14:47:26;;;;;;;10.03;5.47;;;7.60;99.90;;;;;;4936468;29;20040;-89
2021/11/13 14:50:02;;;;;;;10.57;5.33;;;7.60;99.90;;;;;;4934436;29;20019;-89
2021/11/13 14:52:41;;;;;;;10.60;4.90;;;7.60;99.90;;;;;;4930701;29;20044;-89
2021/11/13 14:55:12;;;;;;;9.77;4.80;;;7.60;99.90;;;;;;4937602;29;20036;-88
2021/11/13 14:57:47;;;;;;;8.48;4.38;;;7.60;99.90;;;;;;4969125;28;20489;-88
2021/11/13 15:00:38;;;;;;;11.50;4.80;;;7.60;99.90;;;;;;4936399;29;20087;-90